createdAt,value
2018-02-04T00:00:45.271Z,0.70
2018-02-04T00:03:13.738Z,0.70
2018-02-04T00:05:43.548Z,0.80
2018-02-04T00:08:11.819Z,0.70
2018-02-04T00:10:41.429Z,0.70
2018-02-04T00:13:10.746Z,0.70
2018-02-04T00:15:39.084Z,0.70
2018-02-04T00:18:07.391Z,0.70
2018-02-04T00:20:35.820Z,0.80
2018-02-04T00:23:04.083Z,0.80
2018-02-04T00:25:35.562Z,0.70
2018-02-04T00:28:03.822Z,0.70
2018-02-04T00:30:32.881Z,0.60
2018-02-04T00:33:01.377Z,0.70
2018-02-04T00:35:30.735Z,0.50
2018-02-04T00:38:01.025Z,0.50
2018-02-04T00:40:29.468Z,0.50
2018-02-04T00:42:57.749Z,0.50
2018-02-04T00:45:26.003Z,0.50
2018-02-04T00:47:54.395Z,0.60
2018-02-04T00:50:22.659Z,0.60
2018-02-04T00:52:50.956Z,0.60
2018-02-04T00:55:19.542Z,0.70
2018-02-04T00:57:47.806Z,0.50
2018-02-04T01:00:16.093Z,0.60
2018-02-04T01:02:44.752Z,0.60
2018-02-04T01:05:13.020Z,0.60
2018-02-04T01:07:41.307Z,0.70
2018-02-04T01:10:09.611Z,0.80
2018-02-04T01:12:37.861Z,0.80
2018-02-04T01:15:06.150Z,0.80
2018-02-04T01:17:34.516Z,0.80
2018-02-04T01:20:04.307Z,0.90
2018-02-04T01:22:32.564Z,0.80
2018-02-04T01:25:00.849Z,0.80
2018-02-04T01:27:29.310Z,0.80
2018-02-04T01:29:57.635Z,0.70
2018-02-04T01:32:25.948Z,0.70
2018-02-04T01:34:54.976Z,0.70
2018-02-04T01:37:23.232Z,0.70
2018-02-04T01:39:52.575Z,0.70
2018-02-04T01:42:20.831Z,0.80
2018-02-04T01:44:49.101Z,0.70
2018-02-04T01:47:17.605Z,0.80
2018-02-04T01:49:45.884Z,0.80
2018-02-04T01:52:18.113Z,0.70
2018-02-04T01:54:46.380Z,0.70
2018-02-04T01:57:16.859Z,0.70
2018-02-04T01:59:45.155Z,0.80
2018-02-04T02:02:13.415Z,0.80
2018-02-04T02:04:41.702Z,0.90
2018-02-04T02:07:10.044Z,0.90
2018-02-04T02:09:39.972Z,0.80
2018-02-04T02:12:08.236Z,0.90
2018-02-04T02:14:36.749Z,0.80
2018-02-04T02:17:06.046Z,0.90
2018-02-04T02:19:34.560Z,0.80
2018-02-04T02:22:03.695Z,0.80
2018-02-04T02:24:31.946Z,0.90
2018-02-04T02:27:00.204Z,0.90
2018-02-04T02:32:10.661Z,0.90
2018-02-04T02:34:38.976Z,0.90
2018-02-04T02:37:07.994Z,0.90
2018-02-04T02:39:37.270Z,0.90
2018-02-04T02:42:05.709Z,1.10
2018-02-04T02:44:33.992Z,1.10
2018-02-04T02:47:02.253Z,1.10
2018-02-04T02:49:30.540Z,1.10
2018-02-04T02:51:58.803Z,1.10
2018-02-04T02:54:27.171Z,1.10
2018-02-04T02:56:55.470Z,1.00
2018-02-04T02:59:23.739Z,1.10
2018-02-04T03:01:52.002Z,1.20
2018-02-04T03:04:20.743Z,1.20
2018-02-04T03:06:49.804Z,1.20
2018-02-04T03:09:18.065Z,1.20
2018-02-04T03:11:46.364Z,1.20
2018-02-04T03:14:14.644Z,1.20
2018-02-04T03:16:44.392Z,1.10
2018-02-04T03:19:13.021Z,1.10
2018-02-04T03:21:44.262Z,1.10
2018-02-04T03:24:12.517Z,1.00
2018-02-04T03:26:40.814Z,1.00
2018-02-04T03:29:09.894Z,1.00
2018-02-04T03:31:38.145Z,1.00
2018-02-04T03:34:07.481Z,0.90
2018-02-04T03:36:35.763Z,0.90
2018-02-04T03:39:04.041Z,0.90
2018-02-04T03:41:33.543Z,0.80
2018-02-04T03:44:02.579Z,0.70
2018-02-04T03:46:31.987Z,0.70
2018-02-04T03:49:01.158Z,0.60
2018-02-04T03:51:29.419Z,0.60
2018-02-04T03:54:00.712Z,0.60
2018-02-04T03:56:29.351Z,0.50
2018-02-04T03:58:57.608Z,0.60
2018-02-04T04:01:25.872Z,0.50
2018-02-04T04:03:54.180Z,0.60
2018-02-04T04:06:23.475Z,0.60
2018-02-04T04:08:51.754Z,0.70
2018-02-04T04:11:20.780Z,0.60
2018-02-04T04:13:49.726Z,0.60
2018-02-04T04:16:17.922Z,0.60
2018-02-04T04:18:46.499Z,0.60
2018-02-04T04:21:14.777Z,0.70
2018-02-04T04:23:44.948Z,0.60
2018-02-04T04:26:13.263Z,0.50
2018-02-04T04:28:41.520Z,0.60
2018-02-04T04:31:12.807Z,0.60
2018-02-04T04:33:41.687Z,0.60
2018-02-04T04:36:09.947Z,0.60
2018-02-04T04:38:38.218Z,0.60
2018-02-04T04:41:06.543Z,0.50
2018-02-04T04:43:36.391Z,0.60
2018-02-04T04:46:04.643Z,0.50
2018-02-04T04:48:32.952Z,0.50
2018-02-04T04:51:01.237Z,0.50
2018-02-04T04:53:29.507Z,0.50
2018-02-04T04:55:59.068Z,0.50
2018-02-04T04:58:27.326Z,0.40
2018-02-04T05:00:55.581Z,0.30
2018-02-04T05:03:23.922Z,0.20
2018-02-04T05:05:52.190Z,0.10
2018-02-04T05:08:22.824Z,0.10
2018-02-04T05:10:51.153Z,0.10
2018-02-04T05:13:21.668Z,0.10
2018-02-04T05:15:49.947Z,0.00
2018-02-04T05:18:18.392Z,0.00
2018-02-04T05:20:46.659Z,0.00
2018-02-04T05:23:14.921Z,0.10
2018-02-04T05:25:44.385Z,0.10
2018-02-04T05:28:12.656Z,0.10
2018-02-04T05:30:40.929Z,0.10
2018-02-04T05:33:11.271Z,0.10
2018-02-04T05:35:39.561Z,0.00
2018-02-04T05:38:07.828Z,0.10
2018-02-04T05:40:36.206Z,0.10
2018-02-04T05:43:04.479Z,0.10
2018-02-04T05:45:34.545Z,0.10
2018-02-04T05:48:03.077Z,0.20
2018-02-04T05:50:33.610Z,0.10
2018-02-04T05:53:01.884Z,0.10
2018-02-04T05:55:30.301Z,0.10
2018-02-04T05:57:59.330Z,0.10
2018-02-04T06:00:27.617Z,0.10
2018-02-04T06:02:55.912Z,0.20
2018-02-04T06:05:24.180Z,0.20
2018-02-04T06:07:52.450Z,0.20
2018-02-04T06:10:21.457Z,0.20
2018-02-04T06:12:49.745Z,0.20
2018-02-04T06:15:18.805Z,0.10
2018-02-04T06:17:47.096Z,0.10
2018-02-04T06:20:15.372Z,0.10
2018-02-04T06:22:45.179Z,0.20
2018-02-04T06:25:13.975Z,0.10
2018-02-04T06:27:42.622Z,0.00
2018-02-04T06:30:10.890Z,0.10
2018-02-04T06:32:39.218Z,0.10
2018-02-04T06:35:08.401Z,0.10
2018-02-04T06:37:36.640Z,0.20
2018-02-04T06:40:04.944Z,0.10
2018-02-04T06:42:33.195Z,0.10
2018-02-04T06:45:01.464Z,0.10
2018-02-04T06:47:30.239Z,0.00
2018-02-04T06:49:59.259Z,0.00
2018-02-04T06:52:27.526Z,0.00
2018-02-04T06:54:56.054Z,-0.10
2018-02-04T06:57:24.310Z,0.00
2018-02-04T06:59:54.914Z,0.00
2018-02-04T07:02:24.068Z,0.00
2018-02-04T07:04:52.317Z,0.00
2018-02-04T07:07:20.577Z,0.10
2018-02-04T07:09:49.083Z,0.00
2018-02-04T07:12:17.634Z,0.00
2018-02-04T07:14:45.894Z,0.00
2018-02-04T07:17:14.959Z,0.00
2018-02-04T07:19:43.229Z,-0.10
2018-02-04T07:22:11.505Z,0.00
2018-02-04T07:24:39.818Z,0.00
2018-02-04T07:27:08.833Z,0.00
2018-02-04T07:29:37.935Z,-0.10
2018-02-04T07:32:06.208Z,0.00
2018-02-04T07:34:34.463Z,0.00
2018-02-04T07:37:02.726Z,0.00
2018-02-04T07:39:31.890Z,-0.20
2018-02-04T07:42:00.918Z,-0.10
2018-02-04T07:44:29.949Z,-0.10
2018-02-04T07:46:58.530Z,-0.10
2018-02-04T07:49:27.845Z,-0.10
2018-02-04T07:51:56.793Z,0.00
2018-02-04T07:54:26.177Z,-0.10
2018-02-04T07:56:54.443Z,-0.10
2018-02-04T07:59:22.703Z,0.00
2018-02-04T08:01:54.856Z,0.00
2018-02-04T08:04:23.150Z,0.00
2018-02-04T08:06:51.409Z,0.10
2018-02-04T08:09:19.849Z,0.10
2018-02-04T08:11:48.108Z,0.10
2018-02-04T08:14:17.352Z,0.10
2018-02-04T08:16:46.396Z,0.10
2018-02-04T08:19:14.661Z,0.10
2018-02-04T08:21:42.928Z,0.00
2018-02-04T08:24:11.403Z,0.00
2018-02-04T08:26:42.033Z,0.00
2018-02-04T08:29:10.295Z,0.00
2018-02-04T08:31:40.738Z,0.10
2018-02-04T08:34:09.060Z,0.10
2018-02-04T08:36:38.087Z,0.10
2018-02-04T08:39:06.504Z,0.00
2018-02-04T08:41:34.774Z,0.00
2018-02-04T08:44:03.063Z,-0.10
2018-02-04T08:46:31.386Z,-0.10
2018-02-04T08:48:59.643Z,-0.10
2018-02-04T08:51:28.721Z,-0.10
2018-02-04T08:53:58.184Z,-0.10
2018-02-04T08:56:26.469Z,-0.10
2018-02-04T08:58:54.736Z,-0.10
2018-02-04T09:01:23.150Z,-0.10
2018-02-04T09:03:51.411Z,-0.20
2018-02-04T09:06:19.705Z,-0.20
2018-02-04T09:08:48.007Z,-0.20
2018-02-04T09:11:16.402Z,-0.20
2018-02-04T09:13:44.679Z,-0.30
2018-02-04T09:16:14.028Z,-0.30
2018-02-04T09:18:43.031Z,-0.20
2018-02-04T09:21:11.364Z,-0.30
2018-02-04T09:23:39.652Z,-0.20
2018-02-04T09:26:07.984Z,-0.20
2018-02-04T09:28:38.558Z,-0.30
2018-02-04T09:31:06.988Z,-0.20
2018-02-04T09:33:36.799Z,-0.30
2018-02-04T09:36:05.826Z,-0.30
2018-02-04T09:38:34.133Z,-0.30
2018-02-04T09:41:02.418Z,-0.40
2018-02-04T09:43:31.409Z,-0.30
2018-02-04T09:45:59.752Z,-0.40
2018-02-04T09:48:28.033Z,-0.40
2018-02-04T09:50:56.360Z,-0.40
2018-02-04T09:53:25.011Z,-0.30
2018-02-04T09:55:54.838Z,-0.30
2018-02-04T09:58:23.101Z,-0.40
2018-02-04T10:00:51.589Z,-0.40
2018-02-04T10:03:19.865Z,-0.30
2018-02-04T10:05:48.902Z,-0.30
2018-02-04T10:08:17.959Z,-0.20
2018-02-04T10:10:46.264Z,-0.20
2018-02-04T10:13:15.308Z,-0.10
2018-02-04T10:15:43.616Z,-0.10
2018-02-04T10:18:14.403Z,-0.10
2018-02-04T10:20:42.694Z,0.10
2018-02-04T10:23:11.193Z,0.00
2018-02-04T10:25:39.472Z,0.00
2018-02-04T10:28:07.758Z,0.10
2018-02-04T10:30:38.092Z,0.30
2018-02-04T10:33:06.360Z,0.30
2018-02-04T10:35:34.887Z,0.10
2018-02-04T10:38:03.174Z,0.10
2018-02-04T10:40:31.440Z,0.30
2018-02-04T10:43:00.474Z,0.30
2018-02-04T10:45:28.898Z,0.20
2018-02-04T10:47:57.993Z,0.20
2018-02-04T10:50:26.269Z,0.20
2018-02-04T10:52:54.572Z,0.20
2018-02-04T10:55:23.312Z,0.30
2018-02-04T10:57:51.579Z,0.40
2018-02-04T11:00:19.889Z,0.30
2018-02-04T11:02:48.907Z,0.30
2018-02-04T11:05:17.171Z,0.30
2018-02-04T11:07:48.253Z,0.30
2018-02-04T11:10:16.532Z,0.20
2018-02-04T11:12:44.798Z,0.20
2018-02-04T11:15:13.281Z,0.30
2018-02-04T11:17:41.556Z,0.40
2018-02-04T11:20:11.051Z,0.20
2018-02-04T11:22:39.444Z,0.10
2018-02-04T11:25:07.704Z,0.10
2018-02-04T11:27:35.969Z,0.10
2018-02-04T11:30:05.306Z,0.20
2018-02-04T11:32:33.577Z,0.20
2018-02-04T11:35:01.854Z,0.10
2018-02-04T11:37:30.558Z,0.10
2018-02-04T11:39:58.832Z,0.20
2018-02-04T11:42:27.089Z,0.20
2018-02-04T11:44:56.175Z,0.20
2018-02-04T11:47:24.462Z,0.10
2018-02-04T11:49:52.724Z,0.20
2018-02-04T11:52:21.043Z,0.30
2018-02-04T11:54:50.078Z,0.20
2018-02-04T11:57:19.673Z,0.10
2018-02-04T11:59:48.729Z,0.10
2018-02-04T12:02:17.015Z,0.00
2018-02-04T12:04:46.073Z,0.10
2018-02-04T12:07:15.739Z,0.10
2018-02-04T12:09:45.570Z,0.30
2018-02-04T12:12:14.540Z,0.20
2018-02-04T12:14:43.595Z,0.20
2018-02-04T12:17:11.857Z,0.20
2018-02-04T12:19:40.133Z,0.30
2018-02-04T12:22:11.790Z,0.30
2018-02-04T12:24:40.081Z,0.40
2018-02-04T12:27:09.265Z,0.40
2018-02-04T12:29:37.856Z,0.40
2018-02-04T12:32:06.147Z,0.20
2018-02-04T12:34:35.195Z,0.40
2018-02-04T12:37:03.784Z,0.40
2018-02-04T12:39:33.498Z,0.30
2018-02-04T12:42:01.790Z,0.10
2018-02-04T12:44:30.113Z,0.20
2018-02-04T12:46:59.949Z,0.10
2018-02-04T12:49:28.985Z,0.10
2018-02-04T12:51:57.464Z,0.20
2018-02-04T12:54:25.745Z,0.00
2018-02-04T12:56:54.019Z,-0.10
2018-02-04T12:59:26.227Z,0.00
2018-02-04T13:01:54.513Z,-0.10
2018-02-04T13:04:22.781Z,0.00
2018-02-04T13:06:51.081Z,-0.10
2018-02-04T13:09:19.359Z,-0.20
2018-02-04T13:11:48.405Z,-0.10
2018-02-04T13:14:17.656Z,-0.10
2018-02-04T13:16:45.944Z,-0.10
2018-02-04T13:19:14.235Z,-0.30
2018-02-04T13:21:43.182Z,-0.20
2018-02-04T13:24:11.676Z,-0.20
2018-02-04T13:26:41.543Z,-0.20
2018-02-04T13:29:10.923Z,-0.10
2018-02-04T13:31:39.190Z,-0.10
2018-02-04T13:34:07.469Z,-0.10
2018-02-04T13:36:38.929Z,0.00
2018-02-04T13:39:07.908Z,-0.10
2018-02-04T13:41:37.615Z,-0.10
2018-02-04T13:44:05.907Z,-0.20
2018-02-04T13:46:34.208Z,-0.10
2018-02-04T13:49:02.471Z,0.00
2018-02-04T13:51:30.958Z,0.10
2018-02-04T13:54:00.003Z,0.10
2018-02-04T13:56:28.262Z,0.00
2018-02-04T13:58:56.561Z,0.00
2018-02-04T14:01:25.845Z,0.10
2018-02-04T14:03:54.832Z,0.10
2018-02-04T14:06:23.130Z,0.00
2018-02-04T14:08:51.391Z,-0.10
2018-02-04T14:11:19.662Z,-0.20
2018-02-04T14:13:50.140Z,-0.10
2018-02-04T14:16:19.132Z,-0.10
2018-02-04T14:18:47.392Z,0.00
2018-02-04T14:21:15.873Z,0.00
2018-02-04T14:23:44.912Z,0.00
2018-02-04T14:26:16.441Z,0.00
2018-02-04T14:28:44.701Z,-0.10
2018-02-04T14:31:12.972Z,-0.10
2018-02-04T14:33:41.571Z,-0.10
2018-02-04T14:36:09.933Z,0.00
2018-02-04T14:38:38.210Z,0.00
2018-02-04T14:41:06.501Z,-0.10
2018-02-04T14:43:35.929Z,0.00
2018-02-04T14:46:05.146Z,-0.10
2018-02-04T14:48:33.613Z,-0.10
2018-02-04T14:51:02.661Z,-0.10
2018-02-04T14:53:31.648Z,-0.10
2018-02-04T14:56:00.124Z,0.00
2018-02-04T14:58:28.386Z,-0.10
2018-02-04T15:00:56.646Z,-0.20
2018-02-04T15:03:26.720Z,-0.20
2018-02-04T15:05:55.022Z,-0.20
2018-02-04T15:08:23.308Z,-0.20
2018-02-04T15:10:52.368Z,-0.30
2018-02-04T15:13:20.716Z,-0.30
2018-02-04T15:15:48.980Z,-0.20
2018-02-04T15:18:18.228Z,-0.20
2018-02-04T15:20:46.498Z,-0.30
2018-02-04T15:23:14.770Z,-0.30
2018-02-04T15:25:43.067Z,-0.30
2018-02-04T15:28:13.838Z,-0.20
2018-02-04T15:30:42.103Z,-0.30
2018-02-04T15:33:10.641Z,-0.40
2018-02-04T15:35:38.913Z,-0.50
2018-02-04T15:38:07.180Z,-0.40
2018-02-04T15:40:35.715Z,-0.40
2018-02-04T15:43:05.460Z,-0.40
2018-02-04T15:45:33.990Z,-0.50
2018-02-04T15:48:02.327Z,-0.60
2018-02-04T15:50:31.380Z,-0.60
2018-02-04T15:53:01.926Z,-0.60
2018-02-04T15:55:30.681Z,-0.60
2018-02-04T15:57:59.730Z,-0.70
2018-02-04T16:00:28.030Z,-0.70
2018-02-04T16:02:56.612Z,-0.70
2018-02-04T16:05:29.149Z,-0.80
2018-02-04T16:07:58.269Z,-0.80
2018-02-04T16:10:26.534Z,-0.70
2018-02-04T16:12:54.841Z,-0.70
2018-02-04T16:15:23.430Z,-0.70
2018-02-04T16:17:53.996Z,-0.80
2018-02-04T16:20:22.270Z,-0.70
2018-02-04T16:22:50.565Z,-0.70
2018-02-04T16:25:18.843Z,-0.80
2018-02-04T16:27:47.115Z,-0.70
2018-02-04T16:30:16.421Z,-0.70
2018-02-04T16:32:44.680Z,-0.70
2018-02-04T16:35:12.952Z,-0.60
2018-02-04T16:37:41.390Z,-0.70
2018-02-04T16:40:09.649Z,-0.70
2018-02-04T16:42:38.725Z,-0.60
2018-02-04T16:45:09.399Z,-0.60
2018-02-04T16:47:38.532Z,-0.60
2018-02-04T16:50:06.809Z,-0.60
2018-02-04T16:52:35.122Z,-0.60
2018-02-04T16:55:04.182Z,-0.40
2018-02-04T16:57:32.465Z,-0.50
2018-02-04T17:00:00.989Z,-0.50
2018-02-04T17:02:29.268Z,-0.50
2018-02-04T17:04:57.596Z,-0.50
2018-02-04T17:07:28.991Z,-0.50
2018-02-04T17:09:57.267Z,-0.50
2018-02-04T17:12:25.640Z,-0.50
2018-02-04T17:14:54.069Z,-0.50
2018-02-04T17:17:22.334Z,-0.50
2018-02-04T17:19:51.489Z,-0.50
2018-02-04T17:22:19.768Z,-0.50
2018-02-04T17:24:49.064Z,-0.40
2018-02-04T17:27:17.349Z,-0.50
2018-02-04T17:29:46.044Z,-0.40
2018-02-04T17:32:16.265Z,-0.50
2018-02-04T17:34:44.563Z,-0.50
2018-02-04T17:37:13.626Z,-0.50
2018-02-04T17:39:41.898Z,-0.50
2018-02-04T17:42:10.213Z,-0.50
2018-02-04T17:44:39.694Z,-0.50
2018-02-04T17:47:07.976Z,-0.50
2018-02-04T17:49:36.742Z,-0.60
2018-02-04T17:52:05.055Z,-0.60
2018-02-04T17:54:33.320Z,-0.70
2018-02-04T17:57:04.595Z,-0.70
2018-02-04T17:59:34.478Z,-0.80
2018-02-04T18:02:02.774Z,-0.70
2018-02-04T18:04:31.807Z,-0.80
2018-02-04T18:07:00.377Z,-0.80
2018-02-04T18:09:30.323Z,-0.90
2018-02-04T18:11:58.619Z,-0.80
2018-02-04T18:14:27.099Z,-0.90
2018-02-04T18:16:55.375Z,-0.90
2018-02-04T18:19:23.673Z,-0.90
2018-02-04T18:21:52.139Z,-1.00
2018-02-04T18:24:20.410Z,-1.00
2018-02-04T18:26:48.669Z,-0.90
2018-02-04T18:29:17.272Z,-0.90
2018-02-04T18:31:45.548Z,-0.90
2018-02-04T18:34:17.065Z,-0.80
2018-02-04T18:36:45.359Z,-0.80
2018-02-04T18:39:13.619Z,-0.80
2018-02-04T18:41:41.889Z,-0.80
2018-02-04T18:44:10.413Z,-0.80
2018-02-04T18:46:38.685Z,-0.70
2018-02-04T18:49:06.958Z,-0.70
2018-02-04T18:51:36.057Z,-0.70
2018-02-04T18:54:04.312Z,-0.80
2018-02-04T18:56:32.596Z,-0.70
2018-02-04T18:59:04.057Z,-0.60
2018-02-04T19:01:32.325Z,-0.60
2018-02-04T19:04:00.618Z,-0.70
2018-02-04T19:06:30.137Z,-0.70
2018-02-04T19:08:59.191Z,-0.60
2018-02-04T19:11:30.613Z,-0.60
2018-02-04T19:13:59.136Z,-0.70
2018-02-04T19:16:27.422Z,-0.70
2018-02-04T19:18:55.702Z,-0.70
2018-02-04T19:21:24.328Z,-0.60
2018-02-04T19:23:52.598Z,-0.60
2018-02-04T19:26:20.868Z,-0.70
2018-02-04T19:28:50.062Z,-0.60
2018-02-04T19:31:19.099Z,-0.80
2018-02-04T19:33:47.401Z,-0.80
2018-02-04T19:36:17.074Z,-0.70
2018-02-04T19:38:45.327Z,-0.80
2018-02-04T19:41:13.619Z,-0.70
2018-02-04T19:43:41.894Z,-0.70
2018-02-04T19:46:10.932Z,-0.80
2018-02-04T19:48:39.204Z,-0.80
2018-02-04T19:51:07.645Z,-0.80
2018-02-04T19:53:36.285Z,-0.80
2018-02-04T19:56:04.600Z,-0.90
2018-02-04T19:58:33.048Z,-0.80
2018-02-04T20:01:02.116Z,-0.90
2018-02-04T20:03:30.392Z,-0.90
2018-02-04T20:05:58.708Z,-0.90
2018-02-04T20:08:27.745Z,-0.90
2018-02-04T20:10:56.017Z,-0.90
2018-02-04T20:13:25.381Z,-0.80
2018-02-04T20:15:54.410Z,-1.00
2018-02-04T20:18:22.679Z,-1.00
2018-02-04T20:20:51.080Z,-1.00
2018-02-04T20:23:19.342Z,-1.00
2018-02-04T20:25:49.114Z,-1.00
2018-02-04T20:28:18.341Z,-1.00
2018-02-04T20:30:46.605Z,-1.00
2018-02-04T20:33:20.879Z,-0.90
2018-02-04T20:35:49.166Z,-1.00
2018-02-04T20:38:20.075Z,-1.00
2018-02-04T20:40:48.463Z,-1.00
2018-02-04T20:43:16.749Z,-1.00
2018-02-04T20:45:45.019Z,-1.10
2018-02-04T20:48:13.512Z,-1.20
2018-02-04T20:50:42.585Z,-1.20
2018-02-04T20:53:10.869Z,-1.20
2018-02-04T20:55:39.790Z,-1.30
2018-02-04T20:58:08.821Z,-1.30
2018-02-04T21:00:37.129Z,-1.30
2018-02-04T21:03:06.993Z,-1.30
2018-02-04T21:05:35.273Z,-1.30
2018-02-04T21:08:03.559Z,-1.30
2018-02-04T21:10:32.073Z,-1.30
2018-02-04T21:13:00.353Z,-1.30
2018-02-04T21:15:31.876Z,-1.30
2018-02-04T21:18:00.423Z,-1.40
2018-02-04T21:20:29.457Z,-1.30
2018-02-04T21:22:57.775Z,-1.30
2018-02-04T21:25:26.067Z,-1.30
2018-02-04T21:27:55.098Z,-1.30
2018-02-04T21:30:23.364Z,-1.30
2018-02-04T21:32:52.125Z,-1.30
2018-02-04T21:35:21.170Z,-1.30
2018-02-04T21:37:49.439Z,-1.30
2018-02-04T21:40:21.009Z,-1.30
2018-02-04T21:42:49.303Z,-1.30
2018-02-04T21:45:17.575Z,-1.20
2018-02-04T21:47:45.862Z,-1.20
2018-02-04T21:50:14.143Z,-1.20
2018-02-04T21:52:43.172Z,-1.20
2018-02-04T21:55:11.473Z,-1.20
2018-02-04T21:57:41.461Z,-1.20
2018-02-04T22:00:09.750Z,-1.20
2018-02-04T22:02:41.345Z,-1.20
2018-02-04T22:05:13.779Z,-1.10
2018-02-04T22:07:42.496Z,-1.20
2018-02-04T22:10:10.844Z,-1.10
2018-02-04T22:12:39.555Z,-1.00
2018-02-04T22:15:07.842Z,-1.10
2018-02-04T22:17:36.192Z,-1.10
2018-02-04T22:20:08.211Z,-1.10
2018-02-04T22:22:37.244Z,-1.00
2018-02-04T22:25:06.068Z,-1.10
2018-02-04T22:27:34.349Z,-1.00
2018-02-04T22:30:09.787Z,-1.10
2018-02-04T22:32:38.946Z,-1.00
2018-02-04T22:35:07.712Z,-0.90
2018-02-04T22:37:36.728Z,-1.00
2018-02-04T22:40:05.007Z,-1.00
2018-02-04T22:42:33.520Z,-0.90
2018-02-04T22:45:01.889Z,-0.90
2018-02-04T22:47:30.140Z,-0.80
2018-02-04T22:49:58.411Z,-0.80
2018-02-04T22:52:26.824Z,-0.80
2018-02-04T22:54:55.320Z,-0.80
2018-02-04T22:57:23.657Z,-0.80
2018-02-04T22:59:51.931Z,-0.80
2018-02-04T23:02:20.208Z,-0.80
2018-02-04T23:04:48.576Z,-0.70
2018-02-04T23:07:16.839Z,-0.80
2018-02-04T23:09:45.254Z,-0.80
2018-02-04T23:12:13.634Z,-0.80
2018-02-04T23:14:41.915Z,-0.80
2018-02-04T23:17:10.233Z,-0.80
2018-02-04T23:19:38.498Z,-0.80
2018-02-04T23:22:06.844Z,-0.70
2018-02-04T23:24:35.152Z,-0.80
2018-02-04T23:27:03.523Z,-0.80
2018-02-04T23:29:31.828Z,-0.80
2018-02-04T23:32:00.854Z,-0.70
2018-02-04T23:34:29.171Z,-0.70
2018-02-04T23:36:57.446Z,-0.80
2018-02-04T23:39:25.718Z,-0.80
2018-02-04T23:41:54.061Z,-0.70
2018-02-04T23:44:22.338Z,-0.70
2018-02-04T23:46:50.753Z,-0.80
2018-02-04T23:49:19.016Z,-0.80
2018-02-04T23:51:48.097Z,-0.90
2018-02-04T23:54:16.363Z,-0.90
2018-02-04T23:56:44.669Z,-0.80
2018-02-04T23:59:12.942Z,-0.90
